sensor_id;sensor_type;location;lat;lon;timestamp;temperature;humidity
22706;DHT22;11520;51.198;4.468;2022-09-09T00:01:57;15.50;99.90
22706;DHT22;11520;51.198;4.468;2022-09-09T00:04:33;15.40;99.90
22706;DHT22;11520;51.198;4.468;2022-09-09T00:07:21;15.40;99.90
22706;DHT22;11520;51.198;4.468;2022-09-09T00:10:14;15.40;99.90
22706;DHT22;11520;51.198;4.468;2022-09-09T00:16:14;15.20;99.90
22706;DHT22;11520;51.198;4.468;2022-09-09T00:21:37;15.20;99.90
22706;DHT22;11520;51.198;4.468;2022-09-09T00:24:35;15.20;99.90
22706;DHT22;11520;51.198;4.468;2022-09-09T00:27:46;15.10;99.90
22706;DHT22;11520;51.198;4.468;2022-09-09T00:30:21;14.90;99.90
22706;DHT22;11520;51.198;4.468;2022-09-09T00:32:50;14.90;99.90
22706;DHT22;11520;51.198;4.468;2022-09-09T00:35:31;14.90;99.90
22706;DHT22;11520;51.198;4.468;2022-09-09T00:38:13;14.90;99.90
22706;DHT22;11520;51.198;4.468;2022-09-09T00:40:58;14.90;99.90
22706;DHT22;11520;51.198;4.468;2022-09-09T00:43:30;14.90;99.90
22706;DHT22;11520;51.198;4.468;2022-09-09T00:59:54;14.90;99.90
22706;DHT22;11520;51.198;4.468;2022-09-09T01:02:40;14.90;99.90
22706;DHT22;11520;51.198;4.468;2022-09-09T01:05:28;14.90;99.90
22706;DHT22;11520;51.198;4.468;2022-09-09T01:07:58;14.90;99.90
22706;DHT22;11520;51.198;4.468;2022-09-09T01:13:34;14.80;99.90
22706;DHT22;11520;51.198;4.468;2022-09-09T01:16:04;14.70;99.90
22706;DHT22;11520;51.198;4.468;2022-09-09T01:18:41;14.80;99.90
22706;DHT22;11520;51.198;4.468;2022-09-09T01:26:48;15.00;99.90
22706;DHT22;11520;51.198;4.468;2022-09-09T01:29:17;15.00;99.90
22706;DHT22;11520;51.198;4.468;2022-09-09T01:34:25;15.00;99.90
22706;DHT22;11520;51.198;4.468;2022-09-09T01:39:24;14.90;99.90
22706;DHT22;11520;51.198;4.468;2022-09-09T01:41:50;14.90;99.90
22706;DHT22;11520;51.198;4.468;2022-09-09T01:44:17;14.80;99.90
22706;DHT22;11520;51.198;4.468;2022-09-09T01:46:44;15.00;99.90
22706;DHT22;11520;51.198;4.468;2022-09-09T01:49:10;14.80;99.90
22706;DHT22;11520;51.198;4.468;2022-09-09T01:51:37;14.80;99.90
22706;DHT22;11520;51.198;4.468;2022-09-09T01:54:04;14.70;99.90
22706;DHT22;11520;51.198;4.468;2022-09-09T02:01:46;14.60;99.90
22706;DHT22;11520;51.198;4.468;2022-09-09T02:09:58;14.70;99.90
22706;DHT22;11520;51.198;4.468;2022-09-09T02:12:28;14.70;99.90
22706;DHT22;11520;51.198;4.468;2022-09-09T02:15:05;14.70;99.90
22706;DHT22;11520;51.198;4.468;2022-09-09T02:17:36;14.80;99.90
22706;DHT22;11520;51.198;4.468;2022-09-09T02:20:14;14.80;99.90
22706;DHT22;11520;51.198;4.468;2022-09-09T02:22:42;14.80;99.90
22706;DHT22;11520;51.198;4.468;2022-09-09T02:25:14;14.80;99.90
22706;DHT22;11520;51.198;4.468;2022-09-09T02:27:44;14.70;99.90
22706;DHT22;11520;51.198;4.468;2022-09-09T02:30:11;14.80;99.90
22706;DHT22;11520;51.198;4.468;2022-09-09T02:32:39;14.70;99.90
22706;DHT22;11520;51.198;4.468;2022-09-09T02:35:15;14.80;99.90
22706;DHT22;11520;51.198;4.468;2022-09-09T02:37:44;14.70;99.90
22706;DHT22;11520;51.198;4.468;2022-09-09T02:40:14;14.80;99.90
22706;DHT22;11520;51.198;4.468;2022-09-09T02:42:43;14.70;99.90
22706;DHT22;11520;51.198;4.468;2022-09-09T02:45:12;14.70;99.90
22706;DHT22;11520;51.198;4.468;2022-09-09T02:50:37;14.60;99.90
22706;DHT22;11520;51.198;4.468;2022-09-09T02:53:19;14.60;99.90
22706;DHT22;11520;51.198;4.468;2022-09-09T02:56:14;14.50;99.90
22706;DHT22;11520;51.198;4.468;2022-09-09T02:58:40;14.50;99.90
22706;DHT22;11520;51.198;4.468;2022-09-09T03:01:07;14.40;99.90
22706;DHT22;11520;51.198;4.468;2022-09-09T03:03:35;14.40;99.90
22706;DHT22;11520;51.198;4.468;2022-09-09T03:06:01;14.50;99.90
22706;DHT22;11520;51.198;4.468;2022-09-09T03:08:27;14.40;99.90
22706;DHT22;11520;51.198;4.468;2022-09-09T03:10:54;14.40;99.90
22706;DHT22;11520;51.198;4.468;2022-09-09T03:13:20;14.40;99.90
22706;DHT22;11520;51.198;4.468;2022-09-09T03:15:48;14.40;99.90
22706;DHT22;11520;51.198;4.468;2022-09-09T03:18:14;14.50;99.90
22706;DHT22;11520;51.198;4.468;2022-09-09T03:20:39;14.50;99.90
22706;DHT22;11520;51.198;4.468;2022-09-09T03:23:07;14.60;99.90
22706;DHT22;11520;51.198;4.468;2022-09-09T03:25:33;14.60;99.90
22706;DHT22;11520;51.198;4.468;2022-09-09T03:27:59;14.60;99.90
22706;DHT22;11520;51.198;4.468;2022-09-09T03:30:26;14.60;99.90
22706;DHT22;11520;51.198;4.468;2022-09-09T03:32:53;14.60;99.90
22706;DHT22;11520;51.198;4.468;2022-09-09T03:35:20;14.60;99.90
22706;DHT22;11520;51.198;4.468;2022-09-09T03:37:45;14.60;99.90
22706;DHT22;11520;51.198;4.468;2022-09-09T03:40:11;14.60;99.90
22706;DHT22;11520;51.198;4.468;2022-09-09T03:42:38;14.60;99.90
22706;DHT22;11520;51.198;4.468;2022-09-09T03:45:09;14.60;99.90
22706;DHT22;11520;51.198;4.468;2022-09-09T03:47:36;14.70;99.90
22706;DHT22;11520;51.198;4.468;2022-09-09T03:50:03;14.60;99.90
22706;DHT22;11520;51.198;4.468;2022-09-09T03:52:29;14.70;99.90
22706;DHT22;11520;51.198;4.468;2022-09-09T03:54:57;14.60;99.90
22706;DHT22;11520;51.198;4.468;2022-09-09T03:57:23;14.70;99.90
22706;DHT22;11520;51.198;4.468;2022-09-09T03:59:49;14.70;99.90
22706;DHT22;11520;51.198;4.468;2022-09-09T04:02:16;14.80;99.90
22706;DHT22;11520;51.198;4.468;2022-09-09T04:04:49;14.80;99.90
22706;DHT22;11520;51.198;4.468;2022-09-09T04:07:14;14.90;99.90
22706;DHT22;11520;51.198;4.468;2022-09-09T04:09:40;14.90;99.90
22706;DHT22;11520;51.198;4.468;2022-09-09T04:12:12;14.90;99.90
22706;DHT22;11520;51.198;4.468;2022-09-09T04:14:39;14.90;99.90
22706;DHT22;11520;51.198;4.468;2022-09-09T04:17:05;15.00;99.90
22706;DHT22;11520;51.198;4.468;2022-09-09T04:19:32;14.90;99.90
22706;DHT22;11520;51.198;4.468;2022-09-09T04:21:58;14.90;99.90
22706;DHT22;11520;51.198;4.468;2022-09-09T04:24:24;15.00;99.90
22706;DHT22;11520;51.198;4.468;2022-09-09T04:26:50;15.10;99.90
22706;DHT22;11520;51.198;4.468;2022-09-09T04:29:15;15.10;99.90
22706;DHT22;11520;51.198;4.468;2022-09-09T04:31:41;15.10;99.90
22706;DHT22;11520;51.198;4.468;2022-09-09T04:34:09;15.10;99.90
22706;DHT22;11520;51.198;4.468;2022-09-09T04:36:34;15.10;99.90
22706;DHT22;11520;51.198;4.468;2022-09-09T04:39:00;15.20;99.90
22706;DHT22;11520;51.198;4.468;2022-09-09T04:41:27;15.10;99.90
22706;DHT22;11520;51.198;4.468;2022-09-09T04:43:52;15.10;99.90
22706;DHT22;11520;51.198;4.468;2022-09-09T04:46:22;15.10;99.90
22706;DHT22;11520;51.198;4.468;2022-09-09T04:48:50;15.20;99.90
22706;DHT22;11520;51.198;4.468;2022-09-09T04:51:17;15.10;99.90
22706;DHT22;11520;51.198;4.468;2022-09-09T04:53:43;15.10;99.90
22706;DHT22;11520;51.198;4.468;2022-09-09T04:56:14;15.10;99.90
22706;DHT22;11520;51.198;4.468;2022-09-09T04:58:41;15.10;99.90
22706;DHT22;11520;51.198;4.468;2022-09-09T05:01:16;15.10;99.90
22706;DHT22;11520;51.198;4.468;2022-09-09T05:03:45;15.10;99.90
22706;DHT22;11520;51.198;4.468;2022-09-09T05:06:19;15.10;99.90
22706;DHT22;11520;51.198;4.468;2022-09-09T05:08:45;15.20;99.90
22706;DHT22;11520;51.198;4.468;2022-09-09T05:11:22;15.20;99.90
22706;DHT22;11520;51.198;4.468;2022-09-09T05:13:50;15.20;99.90
22706;DHT22;11520;51.198;4.468;2022-09-09T05:16:16;15.20;99.90
22706;DHT22;11520;51.198;4.468;2022-09-09T05:18:43;15.20;99.90
22706;DHT22;11520;51.198;4.468;2022-09-09T05:21:09;15.20;99.90
22706;DHT22;11520;51.198;4.468;2022-09-09T05:23:35;15.30;99.90
22706;DHT22;11520;51.198;4.468;2022-09-09T05:26:03;15.30;99.90
22706;DHT22;11520;51.198;4.468;2022-09-09T05:28:29;15.30;99.90
22706;DHT22;11520;51.198;4.468;2022-09-09T05:31:02;15.40;99.90
22706;DHT22;11520;51.198;4.468;2022-09-09T05:33:30;15.40;99.90
22706;DHT22;11520;51.198;4.468;2022-09-09T05:36:05;15.50;99.90
22706;DHT22;11520;51.198;4.468;2022-09-09T05:38:31;15.50;99.90
22706;DHT22;11520;51.198;4.468;2022-09-09T05:41:02;15.50;99.90
22706;DHT22;11520;51.198;4.468;2022-09-09T05:43:28;15.60;99.90
22706;DHT22;11520;51.198;4.468;2022-09-09T05:46:05;15.60;99.90
22706;DHT22;11520;51.198;4.468;2022-09-09T05:48:32;15.70;99.90
22706;DHT22;11520;51.198;4.468;2022-09-09T05:51:02;15.80;99.90
22706;DHT22;11520;51.198;4.468;2022-09-09T05:53:29;16.00;99.90
22706;DHT22;11520;51.198;4.468;2022-09-09T05:56:04;16.10;99.90
22706;DHT22;11520;51.198;4.468;2022-09-09T05:58:34;16.20;99.90
22706;DHT22;11520;51.198;4.468;2022-09-09T06:01:07;16.20;99.90
22706;DHT22;11520;51.198;4.468;2022-09-09T06:03:39;16.20;99.90
22706;DHT22;11520;51.198;4.468;2022-09-09T06:06:06;16.10;99.90
22706;DHT22;11520;51.198;4.468;2022-09-09T06:08:37;16.20;99.90
22706;DHT22;11520;51.198;4.468;2022-09-09T06:11:15;16.20;99.90
22706;DHT22;11520;51.198;4.468;2022-09-09T06:13:42;16.30;99.90
22706;DHT22;11520;51.198;4.468;2022-09-09T06:16:13;16.20;99.90
22706;DHT22;11520;51.198;4.468;2022-09-09T06:18:39;16.20;99.90
22706;DHT22;11520;51.198;4.468;2022-09-09T06:21:07;16.10;99.90
22706;DHT22;11520;51.198;4.468;2022-09-09T06:23:33;16.20;99.90
22706;DHT22;11520;51.198;4.468;2022-09-09T06:26:05;16.10;99.90
22706;DHT22;11520;51.198;4.468;2022-09-09T06:28:35;16.30;99.90
22706;DHT22;11520;51.198;4.468;2022-09-09T06:31:07;16.50;99.90
22706;DHT22;11520;51.198;4.468;2022-09-09T06:33:36;16.60;99.90
22706;DHT22;11520;51.198;4.468;2022-09-09T06:36:05;16.70;99.90
22706;DHT22;11520;51.198;4.468;2022-09-09T06:38:30;16.80;99.90
22706;DHT22;11520;51.198;4.468;2022-09-09T06:40:58;16.80;99.90
22706;DHT22;11520;51.198;4.468;2022-09-09T06:43:25;16.80;99.90
22706;DHT22;11520;51.198;4.468;2022-09-09T06:45:59;17.20;99.90
22706;DHT22;11520;51.198;4.468;2022-09-09T06:48:25;17.50;99.90
22706;DHT22;11520;51.198;4.468;2022-09-09T06:51:00;17.70;99.90
22706;DHT22;11520;51.198;4.468;2022-09-09T06:53:26;17.60;99.90
22706;DHT22;11520;51.198;4.468;2022-09-09T06:55:52;17.40;99.90
22706;DHT22;11520;51.198;4.468;2022-09-09T06:58:20;17.20;99.90
22706;DHT22;11520;51.198;4.468;2022-09-09T07:00:47;17.10;99.90
22706;DHT22;11520;51.198;4.468;2022-09-09T07:03:14;17.10;99.90
22706;DHT22;11520;51.198;4.468;2022-09-09T07:05:39;17.10;99.90
22706;DHT22;11520;51.198;4.468;2022-09-09T07:08:05;17.00;99.90
22706;DHT22;11520;51.198;4.468;2022-09-09T07:10:31;16.90;99.90
22706;DHT22;11520;51.198;4.468;2022-09-09T07:12:58;16.90;99.90
22706;DHT22;11520;51.198;4.468;2022-09-09T07:15:26;16.90;99.90
22706;DHT22;11520;51.198;4.468;2022-09-09T07:17:51;17.00;99.90
22706;DHT22;11520;51.198;4.468;2022-09-09T07:20:19;17.00;99.90
22706;DHT22;11520;51.198;4.468;2022-09-09T07:22:45;17.00;99.90
22706;DHT22;11520;51.198;4.468;2022-09-09T07:25:11;17.00;99.90
22706;DHT22;11520;51.198;4.468;2022-09-09T07:27:37;17.10;99.90
22706;DHT22;11520;51.198;4.468;2022-09-09T07:30:03;17.20;99.90
22706;DHT22;11520;51.198;4.468;2022-09-09T07:32:29;17.10;99.90
22706;DHT22;11520;51.198;4.468;2022-09-09T07:34:55;17.10;99.90
22706;DHT22;11520;51.198;4.468;2022-09-09T07:37:24;17.10;99.90
22706;DHT22;11520;51.198;4.468;2022-09-09T07:39:49;17.10;99.90
22706;DHT22;11520;51.198;4.468;2022-09-09T07:42:16;17.10;99.90
22706;DHT22;11520;51.198;4.468;2022-09-09T07:44:42;17.10;99.90
22706;DHT22;11520;51.198;4.468;2022-09-09T07:47:07;17.10;99.90
22706;DHT22;11520;51.198;4.468;2022-09-09T07:49:33;17.10;99.90
22706;DHT22;11520;51.198;4.468;2022-09-09T07:52:01;17.00;99.90
22706;DHT22;11520;51.198;4.468;2022-09-09T07:54:27;17.00;99.90
22706;DHT22;11520;51.198;4.468;2022-09-09T07:56:53;17.00;99.90
22706;DHT22;11520;51.198;4.468;2022-09-09T07:59:20;17.10;99.90
22706;DHT22;11520;51.198;4.468;2022-09-09T08:01:50;17.10;99.90
22706;DHT22;11520;51.198;4.468;2022-09-09T08:04:20;17.10;99.90
22706;DHT22;11520;51.198;4.468;2022-09-09T08:06:49;17.30;99.90
22706;DHT22;11520;51.198;4.468;2022-09-09T08:09:15;17.30;99.90
22706;DHT22;11520;51.198;4.468;2022-09-09T08:11:41;17.40;99.90
22706;DHT22;11520;51.198;4.468;2022-09-09T08:14:08;17.50;99.90
22706;DHT22;11520;51.198;4.468;2022-09-09T08:16:39;17.50;99.90
22706;DHT22;11520;51.198;4.468;2022-09-09T08:19:06;17.50;99.90
22706;DHT22;11520;51.198;4.468;2022-09-09T08:21:33;17.50;99.90
22706;DHT22;11520;51.198;4.468;2022-09-09T08:24:00;17.50;99.90
22706;DHT22;11520;51.198;4.468;2022-09-09T08:26:30;17.50;99.90
22706;DHT22;11520;51.198;4.468;2022-09-09T08:28:57;17.50;99.90
22706;DHT22;11520;51.198;4.468;2022-09-09T08:31:25;17.50;99.90
22706;DHT22;11520;51.198;4.468;2022-09-09T08:33:54;17.40;99.90
22706;DHT22;11520;51.198;4.468;2022-09-09T08:36:22;17.40;99.90
22706;DHT22;11520;51.198;4.468;2022-09-09T08:38:50;17.40;99.90
22706;DHT22;11520;51.198;4.468;2022-09-09T08:44:09;17.50;99.90
22706;DHT22;11520;51.198;4.468;2022-09-09T08:51:56;17.60;99.90
22706;DHT22;11520;51.198;4.468;2022-09-09T08:54:23;17.60;99.90
22706;DHT22;11520;51.198;4.468;2022-09-09T08:56:49;17.60;99.90
22706;DHT22;11520;51.198;4.468;2022-09-09T08:59:17;17.70;99.90
22706;DHT22;11520;51.198;4.468;2022-09-09T09:02:21;17.80;99.90
22706;DHT22;11520;51.198;4.468;2022-09-09T09:05:06;17.70;99.90
22706;DHT22;11520;51.198;4.468;2022-09-09T09:10:35;17.60;99.90
22706;DHT22;11520;51.198;4.468;2022-09-09T09:13:07;17.60;99.90
22706;DHT22;11520;51.198;4.468;2022-09-09T09:15:37;17.50;99.90
22706;DHT22;11520;51.198;4.468;2022-09-09T09:18:04;17.50;99.90
22706;DHT22;11520;51.198;4.468;2022-09-09T09:23:54;17.50;99.90
22706;DHT22;11520;51.198;4.468;2022-09-09T09:26:26;17.60;99.90
22706;DHT22;11520;51.198;4.468;2022-09-09T09:28:55;17.50;99.90
22706;DHT22;11520;51.198;4.468;2022-09-09T09:31:22;17.40;99.90
22706;DHT22;11520;51.198;4.468;2022-09-09T09:33:51;17.40;99.90
22706;DHT22;11520;51.198;4.468;2022-09-09T09:36:19;17.40;99.90
22706;DHT22;11520;51.198;4.468;2022-09-09T09:39:02;17.30;99.90
22706;DHT22;11520;51.198;4.468;2022-09-09T09:41:38;17.30;99.90
22706;DHT22;11520;51.198;4.468;2022-09-09T09:44:31;17.30;99.90
22706;DHT22;11520;51.198;4.468;2022-09-09T09:47:15;17.30;99.90
22706;DHT22;11520;51.198;4.468;2022-09-09T09:49:54;17.20;99.90
22706;DHT22;11520;51.198;4.468;2022-09-09T09:52:25;17.20;99.90
22706;DHT22;11520;51.198;4.468;2022-09-09T09:54:53;17.20;99.90
22706;DHT22;11520;51.198;4.468;2022-09-09T09:57:24;17.20;99.90
22706;DHT22;11520;51.198;4.468;2022-09-09T10:02:41;17.40;99.90
22706;DHT22;11520;51.198;4.468;2022-09-09T10:05:24;17.30;99.90
22706;DHT22;11520;51.198;4.468;2022-09-09T10:08:11;17.40;99.90
22706;DHT22;11520;51.198;4.468;2022-09-09T10:21:54;17.30;99.90
22706;DHT22;11520;51.198;4.468;2022-09-09T10:35:13;17.90;99.90
22706;DHT22;11520;51.198;4.468;2022-09-09T10:40:28;18.00;99.90
22706;DHT22;11520;51.198;4.468;2022-09-09T10:46:09;18.20;99.90
22706;DHT22;11520;51.198;4.468;2022-09-09T10:51:40;18.50;99.90
22706;DHT22;11520;51.198;4.468;2022-09-09T10:56:52;18.40;99.90
22706;DHT22;11520;51.198;4.468;2022-09-09T10:59:22;18.50;99.90
22706;DHT22;11520;51.198;4.468;2022-09-09T11:01:56;18.50;99.90
22706;DHT22;11520;51.198;4.468;2022-09-09T11:04:27;18.60;99.90
22706;DHT22;11520;51.198;4.468;2022-09-09T11:06:56;18.50;99.90
22706;DHT22;11520;51.198;4.468;2022-09-09T11:09:25;18.50;99.90
22706;DHT22;11520;51.198;4.468;2022-09-09T11:11:56;18.60;99.90
22706;DHT22;11520;51.198;4.468;2022-09-09T11:14:47;18.60;99.90
22706;DHT22;11520;51.198;4.468;2022-09-09T11:17:20;18.60;99.90
22706;DHT22;11520;51.198;4.468;2022-09-09T11:19:48;18.70;99.90
22706;DHT22;11520;51.198;4.468;2022-09-09T11:22:33;18.80;99.90
22706;DHT22;11520;51.198;4.468;2022-09-09T11:25:04;19.00;99.90
22706;DHT22;11520;51.198;4.468;2022-09-09T11:27:39;19.40;99.90
22706;DHT22;11520;51.198;4.468;2022-09-09T11:41:02;20.40;99.90
22706;DHT22;11520;51.198;4.468;2022-09-09T11:43:38;20.50;99.90
22706;DHT22;11520;51.198;4.468;2022-09-09T11:46:06;20.50;99.90
22706;DHT22;11520;51.198;4.468;2022-09-09T11:48:34;20.40;99.90
22706;DHT22;11520;51.198;4.468;2022-09-09T11:51:09;20.50;99.90
22706;DHT22;11520;51.198;4.468;2022-09-09T11:53:47;20.60;99.90
22706;DHT22;11520;51.198;4.468;2022-09-09T11:56:27;20.60;99.90
22706;DHT22;11520;51.198;4.468;2022-09-09T11:59:03;20.70;99.90
22706;DHT22;11520;51.198;4.468;2022-09-09T12:01:37;20.80;99.90
22706;DHT22;11520;51.198;4.468;2022-09-09T12:06:51;20.60;99.90
22706;DHT22;11520;51.198;4.468;2022-09-09T12:09:38;20.80;99.90
22706;DHT22;11520;51.198;4.468;2022-09-09T12:14:44;21.10;99.90
22706;DHT22;11520;51.198;4.468;2022-09-09T12:17:20;21.30;99.90
22706;DHT22;11520;51.198;4.468;2022-09-09T12:19:48;21.20;99.90
22706;DHT22;11520;51.198;4.468;2022-09-09T12:22:29;21.20;99.90
22706;DHT22;11520;51.198;4.468;2022-09-09T12:25:26;21.10;99.90
22706;DHT22;11520;51.198;4.468;2022-09-09T12:28:11;20.90;99.90
22706;DHT22;11520;51.198;4.468;2022-09-09T12:30:52;20.90;99.90
22706;DHT22;11520;51.198;4.468;2022-09-09T12:33:21;21.00;99.90
22706;DHT22;11520;51.198;4.468;2022-09-09T12:35:57;21.10;99.90
22706;DHT22;11520;51.198;4.468;2022-09-09T12:38:33;20.90;99.90
22706;DHT22;11520;51.198;4.468;2022-09-09T12:40:59;20.90;99.90
22706;DHT22;11520;51.198;4.468;2022-09-09T12:43:27;21.10;99.90
22706;DHT22;11520;51.198;4.468;2022-09-09T12:45:59;21.10;99.90
22706;DHT22;11520;51.198;4.468;2022-09-09T12:48:34;21.10;99.90
22706;DHT22;11520;51.198;4.468;2022-09-09T12:51:04;20.90;99.90
22706;DHT22;11520;51.198;4.468;2022-09-09T12:53:31;20.70;99.90
22706;DHT22;11520;51.198;4.468;2022-09-09T12:56:07;20.60;99.90
22706;DHT22;11520;51.198;4.468;2022-09-09T12:58:36;20.60;99.90
22706;DHT22;11520;51.198;4.468;2022-09-09T13:01:04;20.70;99.90
22706;DHT22;11520;51.198;4.468;2022-09-09T13:03:42;20.80;99.90
22706;DHT22;11520;51.198;4.468;2022-09-09T13:06:13;20.90;99.90
22706;DHT22;11520;51.198;4.468;2022-09-09T13:08:43;21.20;99.90
22706;DHT22;11520;51.198;4.468;2022-09-09T13:11:14;21.50;99.90
22706;DHT22;11520;51.198;4.468;2022-09-09T13:13:42;21.80;99.90
22706;DHT22;11520;51.198;4.468;2022-09-09T13:16:25;21.60;99.90
22706;DHT22;11520;51.198;4.468;2022-09-09T13:18:52;21.50;99.90
22706;DHT22;11520;51.198;4.468;2022-09-09T13:21:18;21.70;99.90
22706;DHT22;11520;51.198;4.468;2022-09-09T13:23:49;21.60;99.90
22706;DHT22;11520;51.198;4.468;2022-09-09T13:28:47;21.30;99.90
22706;DHT22;11520;51.198;4.468;2022-09-09T13:31:30;21.40;99.90
22706;DHT22;11520;51.198;4.468;2022-09-09T13:33:58;21.40;99.90
22706;DHT22;11520;51.198;4.468;2022-09-09T13:36:29;21.50;99.90
22706;DHT22;11520;51.198;4.468;2022-09-09T13:38:57;21.60;99.90
22706;DHT22;11520;51.198;4.468;2022-09-09T13:41:30;21.60;99.90
22706;DHT22;11520;51.198;4.468;2022-09-09T13:43:57;21.50;99.90
22706;DHT22;11520;51.198;4.468;2022-09-09T13:49:21;21.60;99.90
22706;DHT22;11520;51.198;4.468;2022-09-09T13:52:08;21.60;99.90
22706;DHT22;11520;51.198;4.468;2022-09-09T13:54:34;21.90;99.90
22706;DHT22;11520;51.198;4.468;2022-09-09T13:57:00;21.90;99.90
22706;DHT22;11520;51.198;4.468;2022-09-09T13:59:29;21.80;99.90
22706;DHT22;11520;51.198;4.468;2022-09-09T14:01:55;21.70;99.90
22706;DHT22;11520;51.198;4.468;2022-09-09T14:04:21;21.90;99.90
22706;DHT22;11520;51.198;4.468;2022-09-09T14:06:47;22.00;99.90
22706;DHT22;11520;51.198;4.468;2022-09-09T14:09:14;22.20;99.90
22706;DHT22;11520;51.198;4.468;2022-09-09T14:11:41;22.00;99.90
22706;DHT22;11520;51.198;4.468;2022-09-09T14:14:07;21.60;99.90
22706;DHT22;11520;51.198;4.468;2022-09-09T14:16:34;21.50;99.90
22706;DHT22;11520;51.198;4.468;2022-09-09T14:19:00;21.50;99.90
22706;DHT22;11520;51.198;4.468;2022-09-09T14:21:27;21.50;99.90
22706;DHT22;11520;51.198;4.468;2022-09-09T14:23:54;21.60;99.90
22706;DHT22;11520;51.198;4.468;2022-09-09T14:26:21;21.70;99.90
22706;DHT22;11520;51.198;4.468;2022-09-09T14:28:48;21.70;99.90
22706;DHT22;11520;51.198;4.468;2022-09-09T14:31:14;21.60;99.90
22706;DHT22;11520;51.198;4.468;2022-09-09T14:33:40;21.60;99.90
22706;DHT22;11520;51.198;4.468;2022-09-09T14:36:06;21.70;99.90
22706;DHT22;11520;51.198;4.468;2022-09-09T14:38:34;21.80;99.90
22706;DHT22;11520;51.198;4.468;2022-09-09T14:41:07;22.10;99.90
22706;DHT22;11520;51.198;4.468;2022-09-09T14:43:34;22.10;99.90
22706;DHT22;11520;51.198;4.468;2022-09-09T14:46:17;22.10;99.90
22706;DHT22;11520;51.198;4.468;2022-09-09T14:48:43;21.90;99.90
22706;DHT22;11520;51.198;4.468;2022-09-09T14:51:13;21.90;99.90
22706;DHT22;11520;51.198;4.468;2022-09-09T14:53:40;21.90;99.90
22706;DHT22;11520;51.198;4.468;2022-09-09T14:56:08;21.90;99.90
22706;DHT22;11520;51.198;4.468;2022-09-09T14:58:35;22.00;99.90
22706;DHT22;11520;51.198;4.468;2022-09-09T15:01:08;22.00;99.90
22706;DHT22;11520;51.198;4.468;2022-09-09T15:03:39;22.00;99.90
22706;DHT22;11520;51.198;4.468;2022-09-09T15:06:10;21.80;99.90
22706;DHT22;11520;51.198;4.468;2022-09-09T15:08:39;21.60;99.90
22706;DHT22;11520;51.198;4.468;2022-09-09T15:11:06;21.50;99.90
22706;DHT22;11520;51.198;4.468;2022-09-09T15:13:36;21.30;99.90
22706;DHT22;11520;51.198;4.468;2022-09-09T15:16:17;21.10;99.90
22706;DHT22;11520;51.198;4.468;2022-09-09T15:18:44;21.20;99.90
22706;DHT22;11520;51.198;4.468;2022-09-09T15:21:13;21.00;99.90
22706;DHT22;11520;51.198;4.468;2022-09-09T15:23:39;21.00;99.90
22706;DHT22;11520;51.198;4.468;2022-09-09T15:26:05;20.90;99.90
22706;DHT22;11520;51.198;4.468;2022-09-09T15:28:33;20.80;99.90
22706;DHT22;11520;51.198;4.468;2022-09-09T15:31:15;20.80;99.90
22706;DHT22;11520;51.198;4.468;2022-09-09T15:33:52;20.90;99.90
22706;DHT22;11520;51.198;4.468;2022-09-09T15:36:20;21.10;99.90
22706;DHT22;11520;51.198;4.468;2022-09-09T15:38:46;21.10;99.90
22706;DHT22;11520;51.198;4.468;2022-09-09T15:41:16;21.20;99.90
22706;DHT22;11520;51.198;4.468;2022-09-09T15:43:46;21.10;99.90
22706;DHT22;11520;51.198;4.468;2022-09-09T15:46:36;21.10;99.90
22706;DHT22;11520;51.198;4.468;2022-09-09T15:51:29;21.10;99.90
22706;DHT22;11520;51.198;4.468;2022-09-09T15:53:58;21.10;99.90
22706;DHT22;11520;51.198;4.468;2022-09-09T15:56:25;21.20;99.90
22706;DHT22;11520;51.198;4.468;2022-09-09T15:58:51;21.20;99.90
22706;DHT22;11520;51.198;4.468;2022-09-09T16:01:18;21.00;99.90
22706;DHT22;11520;51.198;4.468;2022-09-09T16:03:45;20.80;99.90
22706;DHT22;11520;51.198;4.468;2022-09-09T16:06:18;20.80;99.90
22706;DHT22;11520;51.198;4.468;2022-09-09T16:08:49;20.70;99.90
22706;DHT22;11520;51.198;4.468;2022-09-09T16:11:24;20.60;99.90
22706;DHT22;11520;51.198;4.468;2022-09-09T16:13:51;20.60;99.90
22706;DHT22;11520;51.198;4.468;2022-09-09T16:16:19;20.50;99.90
22706;DHT22;11520;51.198;4.468;2022-09-09T16:18:49;20.50;99.90
22706;DHT22;11520;51.198;4.468;2022-09-09T16:21:24;20.60;99.90
22706;DHT22;11520;51.198;4.468;2022-09-09T16:23:51;20.30;99.90
22706;DHT22;11520;51.198;4.468;2022-09-09T16:26:19;20.20;99.90
22706;DHT22;11520;51.198;4.468;2022-09-09T16:28:45;20.30;99.90
22706;DHT22;11520;51.198;4.468;2022-09-09T16:31:18;20.40;99.90
22706;DHT22;11520;51.198;4.468;2022-09-09T16:33:45;20.70;99.90
22706;DHT22;11520;51.198;4.468;2022-09-09T16:36:21;20.90;99.90
22706;DHT22;11520;51.198;4.468;2022-09-09T16:38:54;20.60;99.90
22706;DHT22;11520;51.198;4.468;2022-09-09T16:41:20;20.60;99.90
22706;DHT22;11520;51.198;4.468;2022-09-09T16:43:55;20.60;99.90
22706;DHT22;11520;51.198;4.468;2022-09-09T16:46:22;20.60;99.90
22706;DHT22;11520;51.198;4.468;2022-09-09T16:48:50;20.60;99.90
22706;DHT22;11520;51.198;4.468;2022-09-09T16:51:26;20.60;99.90
22706;DHT22;11520;51.198;4.468;2022-09-09T16:53:53;20.40;99.90
22706;DHT22;11520;51.198;4.468;2022-09-09T16:56:24;20.20;99.90
22706;DHT22;11520;51.198;4.468;2022-09-09T16:59:01;20.30;99.90
22706;DHT22;11520;51.198;4.468;2022-09-09T17:01:30;20.40;99.90
22706;DHT22;11520;51.198;4.468;2022-09-09T17:04:01;20.40;99.90
22706;DHT22;11520;51.198;4.468;2022-09-09T17:06:32;20.30;99.90
22706;DHT22;11520;51.198;4.468;2022-09-09T17:09:01;20.20;99.90
22706;DHT22;11520;51.198;4.468;2022-09-09T17:11:28;20.00;99.90
22706;DHT22;11520;51.198;4.468;2022-09-09T17:13:55;19.90;99.90
22706;DHT22;11520;51.198;4.468;2022-09-09T17:16:24;20.00;99.90
22706;DHT22;11520;51.198;4.468;2022-09-09T17:18:52;20.10;99.90
22706;DHT22;11520;51.198;4.468;2022-09-09T17:21:23;20.10;99.90
22706;DHT22;11520;51.198;4.468;2022-09-09T17:23:49;20.00;99.90
22706;DHT22;11520;51.198;4.468;2022-09-09T17:26:17;19.90;99.90
22706;DHT22;11520;51.198;4.468;2022-09-09T17:28:45;20.10;99.90
22706;DHT22;11520;51.198;4.468;2022-09-09T17:31:17;20.10;99.90
22706;DHT22;11520;51.198;4.468;2022-09-09T17:33:48;20.20;99.90
22706;DHT22;11520;51.198;4.468;2022-09-09T17:36:20;20.10;99.90
22706;DHT22;11520;51.198;4.468;2022-09-09T17:38:47;20.10;99.90
22706;DHT22;11520;51.198;4.468;2022-09-09T17:41:35;19.90;99.90
22706;DHT22;11520;51.198;4.468;2022-09-09T17:43:59;19.80;99.90
22706;DHT22;11520;51.198;4.468;2022-09-09T17:46:27;19.80;99.90
22706;DHT22;11520;51.198;4.468;2022-09-09T17:48:59;19.80;99.90
22706;DHT22;11520;51.198;4.468;2022-09-09T17:51:27;19.80;99.90
22706;DHT22;11520;51.198;4.468;2022-09-09T17:53:57;19.60;99.90